sensor_id;sensor_type;location;lat;lon;timestamp;pressure;altitude;pressure_sealevel;temperature;humidity
21240;BME280;10778;48.962;9.018;2024-01-11T00:01:49;100122.25;;;-7.40;100.00
21240;BME280;10778;48.962;9.018;2024-01-11T00:04:15;100123.13;;;-7.43;100.00
21240;BME280;10778;48.962;9.018;2024-01-11T00:06:44;100115.44;;;-7.47;100.00
21240;BME280;10778;48.962;9.018;2024-01-11T00:09:10;100116.28;;;-7.50;100.00
21240;BME280;10778;48.962;9.018;2024-01-11T00:11:36;100117.16;;;-7.41;100.00
21240;BME280;10778;48.962;9.018;2024-01-11T00:14:02;100119.72;;;-7.46;100.00
21240;BME280;10778;48.962;9.018;2024-01-11T00:16:28;100127.38;;;-7.46;100.00
21240;BME280;10778;48.962;9.018;2024-01-11T00:18:54;100128.22;;;-7.50;100.00
21240;BME280;10778;48.962;9.018;2024-01-11T00:21:20;100126.53;;;-7.51;100.00
21240;BME280;10778;48.962;9.018;2024-01-11T00:23:46;100116.28;;;-7.53;100.00
21240;BME280;10778;48.962;9.018;2024-01-11T00:26:12;100120.53;;;-7.60;100.00
21240;BME280;10778;48.962;9.018;2024-01-11T00:28:38;100135.03;;;-7.59;100.00
21240;BME280;10778;48.962;9.018;2024-01-11T00:31:04;100135.88;;;-7.69;100.00
21240;BME280;10778;48.962;9.018;2024-01-11T00:33:31;100137.56;;;-7.63;100.00
21240;BME280;10778;48.962;9.018;2024-01-11T00:35:58;100135.03;;;-7.60;100.00
21240;BME280;10778;48.962;9.018;2024-01-11T00:38:24;100140.13;;;-7.68;100.00
21240;BME280;10778;48.962;9.018;2024-01-11T00:40:50;100129.03;;;-7.79;100.00
21240;BME280;10778;48.962;9.018;2024-01-11T00:43:16;100135.00;;;-7.77;100.00
21240;BME280;10778;48.962;9.018;2024-01-11T00:45:42;100135.00;;;-7.87;100.00
21240;BME280;10778;48.962;9.018;2024-01-11T00:48:08;100135.84;;;-7.83;100.00
21240;BME280;10778;48.962;9.018;2024-01-11T00:50:34;100134.16;;;-7.79;100.00
21240;BME280;10778;48.962;9.018;2024-01-11T00:52:59;100138.41;;;-7.75;100.00
21240;BME280;10778;48.962;9.018;2024-01-11T00:55:27;100137.56;;;-7.83;100.00
21240;BME280;10778;48.962;9.018;2024-01-11T00:57:53;100137.53;;;-7.82;100.00
21240;BME280;10778;48.962;9.018;2024-01-11T01:00:19;100143.50;;;-7.83;100.00
21240;BME280;10778;48.962;9.018;2024-01-11T01:02:45;100138.38;;;-7.83;100.00
21240;BME280;10778;48.962;9.018;2024-01-11T01:05:12;100145.19;;;-7.85;100.00
21240;BME280;10778;48.962;9.018;2024-01-11T01:07:38;100147.78;;;-7.83;100.00
21240;BME280;10778;48.962;9.018;2024-01-11T01:10:04;100144.34;;;-7.90;100.00
21240;BME280;10778;48.962;9.018;2024-01-11T01:12:30;100144.31;;;-7.98;100.00
21240;BME280;10778;48.962;9.018;2024-01-11T01:14:56;100138.34;;;-7.98;100.00
21240;BME280;10778;48.962;9.018;2024-01-11T01:17:22;100140.91;;;-8.00;100.00
21240;BME280;10778;48.962;9.018;2024-01-11T01:19:48;100139.22;;;-8.01;100.00
21240;BME280;10778;48.962;9.018;2024-01-11T01:22:14;100134.09;;;-8.01;100.00
21240;BME280;10778;48.962;9.018;2024-01-11T01:24:40;100147.72;;;-7.97;100.00
21240;BME280;10778;48.962;9.018;2024-01-11T01:27:06;100144.31;;;-8.01;100.00
21240;BME280;10778;48.962;9.018;2024-01-11T01:29:32;100156.25;;;-7.94;100.00
21240;BME280;10778;48.962;9.018;2024-01-11T01:31:58;100151.97;;;-8.01;100.00
21240;BME280;10778;48.962;9.018;2024-01-11T01:34:24;100157.91;;;-8.13;100.00
21240;BME280;10778;48.962;9.018;2024-01-11T01:36:50;100163.00;;;-8.10;100.00
21240;BME280;10778;48.962;9.018;2024-01-11T01:39:16;100167.22;;;-8.18;100.00
21240;BME280;10778;48.962;9.018;2024-01-11T01:41:42;100165.50;;;-8.22;100.00
21240;BME280;10778;48.962;9.018;2024-01-11T01:44:08;100167.22;;;-8.20;100.00
21240;BME280;10778;48.962;9.018;2024-01-11T01:46:34;100168.94;;;-8.16;100.00
21240;BME280;10778;48.962;9.018;2024-01-11T01:49:00;100164.66;;;-8.21;100.00
21240;BME280;10778;48.962;9.018;2024-01-11T01:51:29;100173.16;;;-8.22;100.00
21240;BME280;10778;48.962;9.018;2024-01-11T01:53:56;100170.63;;;-8.21;100.00
21240;BME280;10778;48.962;9.018;2024-01-11T01:56:23;100174.00;;;-8.22;100.00
21240;BME280;10778;48.962;9.018;2024-01-11T01:58:51;100175.69;;;-8.30;100.00
21240;BME280;10778;48.962;9.018;2024-01-11T02:01:18;100171.44;;;-8.30;100.00
21240;BME280;10778;48.962;9.018;2024-01-11T02:03:45;100170.56;;;-8.33;100.00
21240;BME280;10778;48.962;9.018;2024-01-11T02:06:13;100174.81;;;-8.38;100.00
21240;BME280;10778;48.962;9.018;2024-01-11T02:08:44;100167.94;;;-8.43;100.00
21240;BME280;10778;48.962;9.018;2024-01-11T02:11:10;100169.69;;;-8.40;100.00
21240;BME280;10778;48.962;9.018;2024-01-11T02:13:37;100166.31;;;-8.37;100.00
21240;BME280;10778;48.962;9.018;2024-01-11T02:16:03;100176.50;;;-8.34;100.00
21240;BME280;10778;48.962;9.018;2024-01-11T02:18:29;100174.81;;;-8.34;100.00
21240;BME280;10778;48.962;9.018;2024-01-11T02:20:56;100174.81;;;-8.32;100.00
21240;BME280;10778;48.962;9.018;2024-01-11T02:23:24;100179.09;;;-8.26;100.00
21240;BME280;10778;48.962;9.018;2024-01-11T02:25:50;100180.81;;;-8.24;100.00
21240;BME280;10778;48.962;9.018;2024-01-11T02:28:16;100176.56;;;-8.23;100.00
21240;BME280;10778;48.962;9.018;2024-01-11T02:30:42;100179.09;;;-8.31;100.00
21240;BME280;10778;48.962;9.018;2024-01-11T02:33:08;100187.63;;;-8.27;100.00
21240;BME280;10778;48.962;9.018;2024-01-11T02:35:35;100186.72;;;-8.36;100.00
21240;BME280;10778;48.962;9.018;2024-01-11T02:38:03;100180.75;;;-8.38;100.00
21240;BME280;10778;48.962;9.018;2024-01-11T02:40:29;100185.88;;;-8.36;100.00
21240;BME280;10778;48.962;9.018;2024-01-11T02:42:55;100172.25;;;-8.38;100.00
21240;BME280;10778;48.962;9.018;2024-01-11T02:45:21;100173.09;;;-8.38;100.00
21240;BME280;10778;48.962;9.018;2024-01-11T02:47:47;100173.09;;;-8.38;100.00
21240;BME280;10778;48.962;9.018;2024-01-11T02:50:13;100176.50;;;-8.36;100.00
21240;BME280;10778;48.962;9.018;2024-01-11T02:52:39;100173.94;;;-8.36;100.00
21240;BME280;10778;48.962;9.018;2024-01-11T02:55:05;100167.97;;;-8.38;100.00
21240;BME280;10778;48.962;9.018;2024-01-11T02:57:31;100171.34;;;-8.44;100.00
21240;BME280;10778;48.962;9.018;2024-01-11T02:59:57;100165.38;;;-8.50;100.00
21240;BME280;10778;48.962;9.018;2024-01-11T03:02:23;100176.44;;;-8.54;100.00
21240;BME280;10778;48.962;9.018;2024-01-11T03:04:49;100167.91;;;-8.57;100.00
21240;BME280;10778;48.962;9.018;2024-01-11T03:07:15;100163.63;;;-8.59;100.00
21240;BME280;10778;48.962;9.018;2024-01-11T03:09:41;100165.34;;;-8.63;100.00
21240;BME280;10778;48.962;9.018;2024-01-11T03:12:07;100165.34;;;-8.61;100.00
21240;BME280;10778;48.962;9.018;2024-01-11T03:14:33;100164.53;;;-8.52;100.00
21240;BME280;10778;48.962;9.018;2024-01-11T03:16:59;100165.38;;;-8.55;100.00
21240;BME280;10778;48.962;9.018;2024-01-11T03:19:25;100159.41;;;-8.59;100.00
21240;BME280;10778;48.962;9.018;2024-01-11T03:21:51;100155.13;;;-8.63;100.00
21240;BME280;10778;48.962;9.018;2024-01-11T03:24:17;100149.16;;;-8.65;100.00
21240;BME280;10778;48.962;9.018;2024-01-11T03:26:43;100155.97;;;-8.62;100.00
21240;BME280;10778;48.962;9.018;2024-01-11T03:29:08;100160.22;;;-8.61;100.00
21240;BME280;10778;48.962;9.018;2024-01-11T03:31:34;100157.66;;;-8.66;100.00
21240;BME280;10778;48.962;9.018;2024-01-11T03:34:00;100161.91;;;-8.65;100.00
21240;BME280;10778;48.962;9.018;2024-01-11T03:36:26;100156.00;;;-8.61;100.00
21240;BME280;10778;48.962;9.018;2024-01-11T03:38:52;100161.91;;;-8.69;100.00
21240;BME280;10778;48.962;9.018;2024-01-11T03:41:18;100162.72;;;-8.75;100.00
21240;BME280;10778;48.962;9.018;2024-01-11T03:43:45;100167.00;;;-8.69;100.00
21240;BME280;10778;48.962;9.018;2024-01-11T03:46:11;100162.72;;;-8.75;100.00
21240;BME280;10778;48.962;9.018;2024-01-11T03:48:37;100159.34;;;-8.69;100.00
21240;BME280;10778;48.962;9.018;2024-01-11T03:51:03;100160.22;;;-8.67;100.00
21240;BME280;10778;48.962;9.018;2024-01-11T03:53:29;100153.38;;;-8.73;100.00
21240;BME280;10778;48.962;9.018;2024-01-11T03:55:55;100155.00;;;-8.80;100.00
21240;BME280;10778;48.962;9.018;2024-01-11T03:58:21;100157.56;;;-8.80;100.00
21240;BME280;10778;48.962;9.018;2024-01-11T04:00:47;100162.66;;;-8.80;100.00
21240;BME280;10778;48.962;9.018;2024-01-11T04:03:13;100154.19;;;-8.80;100.00
21240;BME280;10778;48.962;9.018;2024-01-11T04:05:39;100153.28;;;-8.82;100.00
21240;BME280;10778;48.962;9.018;2024-01-11T04:08:05;100157.56;;;-8.80;100.00
21240;BME280;10778;48.962;9.018;2024-01-11T04:10:32;100149.88;;;-8.84;100.00
21240;BME280;10778;48.962;9.018;2024-01-11T04:12:58;100150.72;;;-8.86;100.00
21240;BME280;10778;48.962;9.018;2024-01-11T04:15:24;100149.88;;;-8.86;100.00
21240;BME280;10778;48.962;9.018;2024-01-11T04:17:50;100144.78;;;-8.86;100.00
21240;BME280;10778;48.962;9.018;2024-01-11T04:20:16;100149.03;;;-8.87;100.00
21240;BME280;10778;48.962;9.018;2024-01-11T04:22:42;100148.19;;;-8.86;100.00
21240;BME280;10778;48.962;9.018;2024-01-11T04:25:08;100150.72;;;-8.87;100.00
21240;BME280;10778;48.962;9.018;2024-01-11T04:27:34;100144.72;;;-8.92;100.00
21240;BME280;10778;48.962;9.018;2024-01-11T04:30:00;100154.09;;;-8.91;100.00
21240;BME280;10778;48.962;9.018;2024-01-11T04:32:26;100154.88;;;-9.00;100.00
21240;BME280;10778;48.962;9.018;2024-01-11T04:34:52;100152.31;;;-9.02;100.00
21240;BME280;10778;48.962;9.018;2024-01-11T04:37:18;100136.09;;;-9.13;100.00
21240;BME280;10778;48.962;9.018;2024-01-11T04:39:44;100143.72;;;-9.13;100.00
21240;BME280;10778;48.962;9.018;2024-01-11T04:42:10;100151.41;;;-9.11;100.00
21240;BME280;10778;48.962;9.018;2024-01-11T04:44:36;100149.78;;;-9.00;100.00
21240;BME280;10778;48.962;9.018;2024-01-11T04:47:02;100142.94;;;-9.04;100.00
21240;BME280;10778;48.962;9.018;2024-01-11T04:49:28;100149.75;;;-9.03;100.00
21240;BME280;10778;48.962;9.018;2024-01-11T04:51:54;100156.59;;;-9.01;100.00
21240;BME280;10778;48.962;9.018;2024-01-11T04:54:20;100159.94;;;-9.03;100.00
21240;BME280;10778;48.962;9.018;2024-01-11T04:56:46;100158.25;;;-9.06;100.00
21240;BME280;10778;48.962;9.018;2024-01-11T04:59:12;100159.09;;;-9.07;100.00
21240;BME280;10778;48.962;9.018;2024-01-11T05:01:38;100160.81;;;-9.06;100.00
21240;BME280;10778;48.962;9.018;2024-01-11T05:04:06;100163.31;;;-9.07;100.00
21240;BME280;10778;48.962;9.018;2024-01-11T05:06:32;100171.78;;;-9.10;100.00
21240;BME280;10778;48.962;9.018;2024-01-11T05:08:58;100156.47;;;-9.16;100.00
21240;BME280;10778;48.962;9.018;2024-01-11T05:11:24;100161.53;;;-9.19;100.00
21240;BME280;10778;48.962;9.018;2024-01-11T05:13:51;100159.88;;;-9.11;100.00
21240;BME280;10778;48.962;9.018;2024-01-11T05:16:22;100161.63;;;-9.05;100.00
21240;BME280;10778;48.962;9.018;2024-01-11T05:18:48;100162.47;;;-9.09;100.00
21240;BME280;10778;48.962;9.018;2024-01-11T05:21:15;100172.75;;;-8.98;100.00
21240;BME280;10778;48.962;9.018;2024-01-11T05:23:41;100176.13;;;-9.03;100.00
21240;BME280;10778;48.962;9.018;2024-01-11T05:26:10;100176.13;;;-9.00;100.00
21240;BME280;10778;48.962;9.018;2024-01-11T05:28:36;100166.75;;;-9.05;100.00
21240;BME280;10778;48.962;9.018;2024-01-11T05:31:10;100181.16;;;-9.07;100.00
21240;BME280;10778;48.962;9.018;2024-01-11T05:33:37;100188.81;;;-9.07;100.00
21240;BME280;10778;48.962;9.018;2024-01-11T05:36:03;100186.28;;;-9.04;100.00
21240;BME280;10778;48.962;9.018;2024-01-11T05:38:29;100184.59;;;-9.02;100.00
21240;BME280;10778;48.962;9.018;2024-01-11T05:40:55;100187.94;;;-9.08;100.00
21240;BME280;10778;48.962;9.018;2024-01-11T05:43:22;100188.84;;;-9.04;100.00
21240;BME280;10778;48.962;9.018;2024-01-11T05:45:49;100194.81;;;-9.02;100.00
21240;BME280;10778;48.962;9.018;2024-01-11T05:48:16;100198.19;;;-9.05;100.00
21240;BME280;10778;48.962;9.018;2024-01-11T05:50:46;100199.91;;;-8.99;100.00
21240;BME280;10778;48.962;9.018;2024-01-11T05:53:12;100211.78;;;-9.06;100.00
21240;BME280;10778;48.962;9.018;2024-01-11T05:55:39;100210.06;;;-9.08;100.00
21240;BME280;10778;48.962;9.018;2024-01-11T05:58:05;100210.09;;;-9.04;100.00
21240;BME280;10778;48.962;9.018;2024-01-11T06:00:31;100210.09;;;-9.07;100.00
21240;BME280;10778;48.962;9.018;2024-01-11T06:02:57;100207.47;;;-9.13;100.00
21240;BME280;10778;48.962;9.018;2024-01-11T06:05:23;100210.91;;;-9.08;100.00
21240;BME280;10778;48.962;9.018;2024-01-11T06:07:49;100214.25;;;-9.15;100.00
21240;BME280;10778;48.962;9.018;2024-01-11T06:10:15;100203.22;;;-9.16;100.00
21240;BME280;10778;48.962;9.018;2024-01-11T06:12:42;100201.47;;;-9.17;100.00
21240;BME280;10778;48.962;9.018;2024-01-11T06:15:09;100205.66;;;-9.25;100.00
21240;BME280;10778;48.962;9.018;2024-01-11T06:17:35;100211.59;;;-9.26;100.00
21240;BME280;10778;48.962;9.018;2024-01-11T06:20:02;100212.53;;;-9.19;100.00
21240;BME280;10778;48.962;9.018;2024-01-11T06:22:29;100202.25;;;-9.25;100.00
21240;BME280;10778;48.962;9.018;2024-01-11T06:24:55;100196.31;;;-9.26;100.00
21240;BME280;10778;48.962;9.018;2024-01-11T06:27:21;100205.69;;;-9.23;100.00
21240;BME280;10778;48.962;9.018;2024-01-11T06:29:47;100201.47;;;-9.21;100.00
21240;BME280;10778;48.962;9.018;2024-01-11T06:32:13;100184.47;;;-9.19;100.00
21240;BME280;10778;48.962;9.018;2024-01-11T06:34:39;100197.09;;;-9.35;100.00
21240;BME280;10778;48.962;9.018;2024-01-11T06:37:07;100195.38;;;-9.34;100.00
21240;BME280;10778;48.962;9.018;2024-01-11T06:39:33;100205.53;;;-9.37;100.00
21240;BME280;10778;48.962;9.018;2024-01-11T06:41:59;100209.91;;;-9.27;100.00
21240;BME280;10778;48.962;9.018;2024-01-11T06:44:25;100215.91;;;-9.19;100.00
21240;BME280;10778;48.962;9.018;2024-01-11T06:46:51;100213.34;;;-9.23;100.00
21240;BME280;10778;48.962;9.018;2024-01-11T06:49:17;100214.13;;;-9.29;100.00
21240;BME280;10778;48.962;9.018;2024-01-11T06:51:43;100223.44;;;-9.33;100.00
21240;BME280;10778;48.962;9.018;2024-01-11T06:54:09;100225.13;;;-9.32;100.00
21240;BME280;10778;48.962;9.018;2024-01-11T06:56:35;100216.72;;;-9.26;100.00
21240;BME280;10778;48.962;9.018;2024-01-11T06:59:01;100226.09;;;-9.19;100.00
21240;BME280;10778;48.962;9.018;2024-01-11T07:01:27;100232.09;;;-9.15;100.00
21240;BME280;10778;48.962;9.018;2024-01-11T07:03:54;100242.25;;;-9.18;100.00
21240;BME280;10778;48.962;9.018;2024-01-11T07:06:20;100239.72;;;-9.18;100.00
21240;BME280;10778;48.962;9.018;2024-01-11T07:08:46;100237.97;;;-9.21;100.00
21240;BME280;10778;48.962;9.018;2024-01-11T07:11:12;100238.75;;;-9.31;100.00
21240;BME280;10778;48.962;9.018;2024-01-11T07:13:38;100244.75;;;-9.24;100.00
21240;BME280;10778;48.962;9.018;2024-01-11T07:16:05;100245.66;;;-9.19;100.00
21240;BME280;10778;48.962;9.018;2024-01-11T07:18:31;100256.78;;;-9.12;100.00
21240;BME280;10778;48.962;9.018;2024-01-11T07:20:59;100245.75;;;-9.08;100.00
21240;BME280;10778;48.962;9.018;2024-01-11T07:23:27;100254.28;;;-9.05;100.00
21240;BME280;10778;48.962;9.018;2024-01-11T07:25:53;100252.59;;;-9.03;100.00
21240;BME280;10778;48.962;9.018;2024-01-11T07:28:19;100252.66;;;-8.98;100.00
21240;BME280;10778;48.962;9.018;2024-01-11T07:30:53;100255.19;;;-9.00;100.00
21240;BME280;10778;48.962;9.018;2024-01-11T07:33:20;100264.59;;;-8.92;100.00
21240;BME280;10778;48.962;9.018;2024-01-11T07:35:47;100270.59;;;-8.87;100.00
21240;BME280;10778;48.962;9.018;2024-01-11T07:38:13;100268.88;;;-8.90;100.00
21240;BME280;10778;48.962;9.018;2024-01-11T07:40:39;100263.66;;;-8.99;100.00
21240;BME280;10778;48.962;9.018;2024-01-11T07:43:05;100273.91;;;-8.97;100.00
21240;BME280;10778;48.962;9.018;2024-01-11T07:45:31;100279.88;;;-8.92;100.00
21240;BME280;10778;48.962;9.018;2024-01-11T07:47:57;100286.75;;;-8.85;100.00
21240;BME280;10778;48.962;9.018;2024-01-11T07:50:23;100285.94;;;-8.81;100.00
21240;BME280;10778;48.962;9.018;2024-01-11T07:52:49;100284.28;;;-8.76;100.00
21240;BME280;10778;48.962;9.018;2024-01-11T07:55:16;100296.16;;;-8.78;100.00
21240;BME280;10778;48.962;9.018;2024-01-11T07:57:43;100296.34;;;-8.58;100.00
21240;BME280;10778;48.962;9.018;2024-01-11T08:00:09;100292.91;;;-8.58;100.00
21240;BME280;10778;48.962;9.018;2024-01-11T08:02:41;100315.94;;;-8.50;100.00
21240;BME280;10778;48.962;9.018;2024-01-11T08:05:07;100330.34;;;-8.59;100.00
21240;BME280;10778;48.962;9.018;2024-01-11T08:07:33;100321.91;;;-8.47;100.00
21240;BME280;10778;48.962;9.018;2024-01-11T08:09:59;100324.41;;;-8.56;100.00
21240;BME280;10778;48.962;9.018;2024-01-11T08:12:25;100320.28;;;-8.38;100.00
21240;BME280;10778;48.962;9.018;2024-01-11T08:14:51;100322.03;;;-8.31;100.00
21240;BME280;10778;48.962;9.018;2024-01-11T08:17:17;100328.09;;;-8.17;100.00
21240;BME280;10778;48.962;9.018;2024-01-11T08:19:43;100326.84;;;-7.20;98.67
21240;BME280;10778;48.962;9.018;2024-01-11T08:22:10;100313.88;;;-5.43;91.86
21240;BME280;10778;48.962;9.018;2024-01-11T08:24:37;100316.06;;;-4.73;84.26
21240;BME280;10778;48.962;9.018;2024-01-11T08:27:04;100320.31;;;-3.75;81.50
21240;BME280;10778;48.962;9.018;2024-01-11T08:29:31;100307.28;;;-2.93;74.11
21240;BME280;10778;48.962;9.018;2024-01-11T08:31:58;100307.44;;;-2.46;71.16
21240;BME280;10778;48.962;9.018;2024-01-11T08:34:24;100311.91;;;-2.59;68.52
21240;BME280;10778;48.962;9.018;2024-01-11T08:36:52;100299.38;;;-1.79;68.97
21240;BME280;10778;48.962;9.018;2024-01-11T08:39:18;100301.22;;;-1.02;66.16
21240;BME280;10778;48.962;9.018;2024-01-11T08:41:44;100298.03;;;-0.76;64.83
21240;BME280;10778;48.962;9.018;2024-01-11T08:44:10;100295.97;;;-0.61;63.48
21240;BME280;10778;48.962;9.018;2024-01-11T08:46:36;100292.34;;;-0.54;62.88
21240;BME280;10778;48.962;9.018;2024-01-11T08:49:02;100287.75;;;-0.41;62.19
21240;BME280;10778;48.962;9.018;2024-01-11T08:51:29;100296.28;;;0.59;61.67
21240;BME280;10778;48.962;9.018;2024-01-11T08:53:55;100296.25;;;0.29;61.39
21240;BME280;10778;48.962;9.018;2024-01-11T08:56:22;100297.63;;;0.41;62.32
21240;BME280;10778;48.962;9.018;2024-01-11T08:58:48;100309.28;;;0.26;61.26
21240;BME280;10778;48.962;9.018;2024-01-11T09:01:14;100310.16;;;0.56;61.03
21240;BME280;10778;48.962;9.018;2024-01-11T09:03:41;100307.56;;;0.56;60.79
21240;BME280;10778;48.962;9.018;2024-01-11T09:06:07;100293.38;;;2.30;59.48
21240;BME280;10778;48.962;9.018;2024-01-11T09:08:33;100292.59;;;2.03;57.23
21240;BME280;10778;48.962;9.018;2024-01-11T09:11:00;100314.94;;;1.81;57.69
21240;BME280;10778;48.962;9.018;2024-01-11T09:13:27;100309.88;;;2.04;57.41
21240;BME280;10778;48.962;9.018;2024-01-11T09:15:54;100317.78;;;1.20;59.05
21240;BME280;10778;48.962;9.018;2024-01-11T09:18:20;100327.50;;;0.21;61.76
21240;BME280;10778;48.962;9.018;2024-01-11T09:20:47;100325.88;;;0.50;62.18
21240;BME280;10778;48.962;9.018;2024-01-11T09:23:13;100308.91;;;1.55;61.10
21240;BME280;10778;48.962;9.018;2024-01-11T09:25:39;100295.09;;;2.77;58.11
21240;BME280;10778;48.962;9.018;2024-01-11T09:28:05;100297.41;;;3.07;56.64
21240;BME280;10778;48.962;9.018;2024-01-11T09:30:31;100298.94;;;3.13;55.15
21240;BME280;10778;48.962;9.018;2024-01-11T09:32:58;100304.63;;;3.01;56.28
21240;BME280;10778;48.962;9.018;2024-01-11T09:35:24;100318.28;;;2.10;57.66
21240;BME280;10778;48.962;9.018;2024-01-11T09:37:50;100325.28;;;2.34;58.83
21240;BME280;10778;48.962;9.018;2024-01-11T09:40:18;100319.16;;;2.82;56.62
21240;BME280;10778;48.962;9.018;2024-01-11T09:42:44;100305.72;;;4.22;54.86
21240;BME280;10778;48.962;9.018;2024-01-11T09:45:14;100315.13;;;2.97;56.45
21240;BME280;10778;48.962;9.018;2024-01-11T09:47:44;100310.94;;;3.81;55.69
21240;BME280;10778;48.962;9.018;2024-01-11T09:50:11;100305.28;;;4.91;52.02
21240;BME280;10778;48.962;9.018;2024-01-11T09:52:47;100307.28;;;4.26;53.43
21240;BME280;10778;48.962;9.018;2024-01-11T09:55:17;100307.09;;;4.10;53.39
21240;BME280;10778;48.962;9.018;2024-01-11T09:57:45;100305.78;;;5.17;52.59
21240;BME280;10778;48.962;9.018;2024-01-11T10:00:20;100307.09;;;4.31;53.14
21240;BME280;10778;48.962;9.018;2024-01-11T10:02:48;100300.00;;;4.73;51.58
21240;BME280;10778;48.962;9.018;2024-01-11T10:05:14;100292.25;;;3.92;54.09
21240;BME280;10778;48.962;9.018;2024-01-11T10:07:40;100285.56;;;4.26;53.29
21240;BME280;10778;48.962;9.018;2024-01-11T10:10:07;100278.72;;;4.63;53.33
21240;BME280;10778;48.962;9.018;2024-01-11T10:12:36;100264.91;;;5.17;51.08
21240;BME280;10778;48.962;9.018;2024-01-11T10:15:07;100267.72;;;4.76;50.95
21240;BME280;10778;48.962;9.018;2024-01-11T10:17:42;100281.34;;;3.83;53.86
21240;BME280;10778;48.962;9.018;2024-01-11T10:20:12;100282.47;;;3.35;56.69
21240;BME280;10778;48.962;9.018;2024-01-11T10:22:40;100290.72;;;2.32;59.78
21240;BME280;10778;48.962;9.018;2024-01-11T10:25:14;100278.13;;;2.45;59.76
21240;BME280;10778;48.962;9.018;2024-01-11T10:27:40;100279.97;;;2.65;58.87
21240;BME280;10778;48.962;9.018;2024-01-11T10:30:11;100277.63;;;2.35;58.66
21240;BME280;10778;48.962;9.018;2024-01-11T10:32:39;100292.03;;;2.44;58.77
21240;BME280;10778;48.962;9.018;2024-01-11T10:35:05;100293.59;;;2.94;58.00
21240;BME280;10778;48.962;9.018;2024-01-11T10:37:32;100289.56;;;3.09;57.46
21240;BME280;10778;48.962;9.018;2024-01-11T10:40:04;100286.50;;;2.75;58.21
21240;BME280;10778;48.962;9.018;2024-01-11T10:42:38;100285.22;;;3.09;57.64
21240;BME280;10778;48.962;9.018;2024-01-11T10:45:11;100279.41;;;3.03;57.30
21240;BME280;10778;48.962;9.018;2024-01-11T10:47:49;100280.81;;;3.75;56.56
21240;BME280;10778;48.962;9.018;2024-01-11T10:50:18;100284.97;;;3.59;55.97
21240;BME280;10778;48.962;9.018;2024-01-11T10:53:02;100293.94;;;2.62;57.36
21240;BME280;10778;48.962;9.018;2024-01-11T10:55:34;100289.34;;;3.36;56.85
21240;BME280;10778;48.962;9.018;2024-01-11T10:58:01;100288.75;;;3.51;56.26
21240;BME280;10778;48.962;9.018;2024-01-11T11:00:31;100285.72;;;2.73;56.84
21240;BME280;10778;48.962;9.018;2024-01-11T11:02:59;100278.31;;;3.51;56.24
21240;BME280;10778;48.962;9.018;2024-01-11T11:05:28;100285.31;;;2.84;57.13
21240;BME280;10778;48.962;9.018;2024-01-11T11:07:56;100273.41;;;2.78;58.18
21240;BME280;10778;48.962;9.018;2024-01-11T11:10:23;100278.72;;;2.27;58.14
21240;BME280;10778;48.962;9.018;2024-01-11T11:12:52;100280.28;;;1.84;59.76
21240;BME280;10778;48.962;9.018;2024-01-11T11:15:19;100280.50;;;1.24;62.21
21240;BME280;10778;48.962;9.018;2024-01-11T11:17:49;100275.78;;;1.62;61.61
21240;BME280;10778;48.962;9.018;2024-01-11T11:20:15;100271.22;;;1.44;62.36
21240;BME280;10778;48.962;9.018;2024-01-11T11:22:42;100276.56;;;1.39;62.72
21240;BME280;10778;48.962;9.018;2024-01-11T11:25:24;100278.44;;;1.07;62.58
21240;BME280;10778;48.962;9.018;2024-01-11T11:27:51;100281.91;;;1.34;62.31
21240;BME280;10778;48.962;9.018;2024-01-11T11:30:19;100276.50;;;1.93;61.64
21240;BME280;10778;48.962;9.018;2024-01-11T11:32:46;100261.59;;;1.98;62.17
21240;BME280;10778;48.962;9.018;2024-01-11T11:35:12;100265.91;;;1.99;62.85
21240;BME280;10778;48.962;9.018;2024-01-11T11:37:39;100258.91;;;1.76;62.02
21240;BME280;10778;48.962;9.018;2024-01-11T11:40:06;100260.19;;;1.89;62.14
21240;BME280;10778;48.962;9.018;2024-01-11T11:42:36;100254.81;;;2.19;61.57
21240;BME280;10778;48.962;9.018;2024-01-11T11:45:03;100252.59;;;2.32;60.61
21240;BME280;10778;48.962;9.018;2024-01-11T11:47:36;100253.13;;;2.18;60.35
21240;BME280;10778;48.962;9.018;2024-01-11T11:50:06;100249.47;;;2.46;60.13
21240;BME280;10778;48.962;9.018;2024-01-11T11:52:34;100246.31;;;2.62;59.75
21240;BME280;10778;48.962;9.018;2024-01-11T11:55:02;100245.69;;;2.55;60.59
21240;BME280;10778;48.962;9.018;2024-01-11T11:57:28;100237.75;;;2.36;59.34
21240;BME280;10778;48.962;9.018;2024-01-11T11:59:58;100229.84;;;2.39;61.81
21240;BME280;10778;48.962;9.018;2024-01-11T12:02:39;100223.25;;;2.76;59.77
21240;BME280;10778;48.962;9.018;2024-01-11T12:05:05;100220.59;;;2.08;60.81
21240;BME280;10778;48.962;9.018;2024-01-11T12:07:31;100230.53;;;2.20;61.11
21240;BME280;10778;48.962;9.018;2024-01-11T12:09:57;100223.03;;;2.12;61.24
21240;BME280;10778;48.962;9.018;2024-01-11T12:12:24;100223.06;;;2.11;61.45
21240;BME280;10778;48.962;9.018;2024-01-11T12:14:50;100217.06;;;2.10;62.98
21240;BME280;10778;48.962;9.018;2024-01-11T12:17:16;100222.72;;;1.96;63.00
21240;BME280;10778;48.962;9.018;2024-01-11T12:19:42;100223.41;;;2.02;63.92
21240;BME280;10778;48.962;9.018;2024-01-11T12:22:08;100218.63;;;2.15;62.81
21240;BME280;10778;48.962;9.018;2024-01-11T12:24:34;100221.81;;;2.23;63.21
21240;BME280;10778;48.962;9.018;2024-01-11T12:27:01;100222.91;;;2.16;62.38
21240;BME280;10778;48.962;9.018;2024-01-11T12:29:30;100221.88;;;2.20;61.76
21240;BME280;10778;48.962;9.018;2024-01-11T12:31:57;100211.47;;;1.97;62.02
21240;BME280;10778;48.962;9.018;2024-01-11T12:34:26;100215.31;;;2.57;62.94
21240;BME280;10778;48.962;9.018;2024-01-11T12:36:53;100218.78;;;2.34;61.50
21240;BME280;10778;48.962;9.018;2024-01-11T12:39:24;100219.59;;;2.36;61.98
21240;BME280;10778;48.962;9.018;2024-01-11T12:41:51;100213.50;;;2.59;61.56
21240;BME280;10778;48.962;9.018;2024-01-11T12:44:18;100204.50;;;2.22;60.12